sensor_id;sensor_type;location;lat;lon;timestamp;pressure;altitude;pressure_sealevel;temperature;humidity
75409;BME280;63979;55.644;37.734;2023-11-19T00:01:58;101188.69;;;-5.78;69.27
75409;BME280;63979;55.644;37.734;2023-11-19T00:06:59;101182.50;;;-5.84;70.07
75409;BME280;63979;55.644;37.734;2023-11-19T00:12:04;101178.25;;;-5.79;69.88
75409;BME280;63979;55.644;37.734;2023-11-19T00:17:05;101179.03;;;-5.85;70.39
75409;BME280;63979;55.644;37.734;2023-11-19T00:22:06;101171.19;;;-5.89;70.20
75409;BME280;63979;55.644;37.734;2023-11-19T00:27:07;101176.41;;;-5.86;70.31
75409;BME280;63979;55.644;37.734;2023-11-19T00:32:08;101161.66;;;-5.87;70.18
75409;BME280;63979;55.644;37.734;2023-11-19T00:37:09;101163.38;;;-5.89;70.11
75409;BME280;63979;55.644;37.734;2023-11-19T00:42:10;101157.31;;;-5.88;70.49
75409;BME280;63979;55.644;37.734;2023-11-19T00:47:11;101160.91;;;-5.80;70.83
75409;BME280;63979;55.644;37.734;2023-11-19T00:52:12;101147.91;;;-5.80;70.89
75409;BME280;63979;55.644;37.734;2023-11-19T00:57:12;101146.97;;;-5.85;70.79
75409;BME280;63979;55.644;37.734;2023-11-19T01:02:13;101143.47;;;-5.86;71.26
75409;BME280;63979;55.644;37.734;2023-11-19T01:07:14;101147.56;;;-5.99;71.35
75409;BME280;63979;55.644;37.734;2023-11-19T01:12:15;101133.41;;;-6.16;71.57
75409;BME280;63979;55.644;37.734;2023-11-19T01:17:16;101121.28;;;-6.15;72.28
75409;BME280;63979;55.644;37.734;2023-11-19T01:22:17;101120.34;;;-6.19;73.22
75409;BME280;63979;55.644;37.734;2023-11-19T01:27:19;101106.69;;;-6.09;74.92
75409;BME280;63979;55.644;37.734;2023-11-19T01:32:20;101109.34;;;-6.04;75.18
75409;BME280;63979;55.644;37.734;2023-11-19T01:37:21;101053.31;;;-6.37;74.45
75409;BME280;63979;55.644;37.734;2023-11-19T01:42:22;101107.56;;;-6.08;74.11
75409;BME280;63979;55.644;37.734;2023-11-19T01:47:22;101108.31;;;-6.14;74.25
75409;BME280;63979;55.644;37.734;2023-11-19T01:52:23;101101.28;;;-6.19;73.47
75409;BME280;63979;55.644;37.734;2023-11-19T01:57:24;101101.22;;;-6.22;74.15
75409;BME280;63979;55.644;37.734;2023-11-19T02:02:25;101101.19;;;-6.24;74.34
75409;BME280;63979;55.644;37.734;2023-11-19T02:07:27;101108.06;;;-6.24;73.69
75409;BME280;63979;55.644;37.734;2023-11-19T02:12:28;101108.00;;;-6.29;73.75
75409;BME280;63979;55.644;37.734;2023-11-19T02:17:30;101110.38;;;-6.40;73.98
75409;BME280;63979;55.644;37.734;2023-11-19T02:22:35;101102.47;;;-6.46;74.54
75409;BME280;63979;55.644;37.734;2023-11-19T02:32:45;101088.66;;;-6.43;74.76
75409;BME280;63979;55.644;37.734;2023-11-19T02:37:46;101036.16;;;-6.71;73.91
75409;BME280;63979;55.644;37.734;2023-11-19T02:42:47;101091.22;;;-6.45;74.39
75409;BME280;63979;55.644;37.734;2023-11-19T02:47:48;101072.84;;;-6.55;75.04
75409;BME280;63979;55.644;37.734;2023-11-19T02:52:48;101093.72;;;-6.51;74.75
75409;BME280;63979;55.644;37.734;2023-11-19T02:57:50;101096.44;;;-6.45;75.16
75409;BME280;63979;55.644;37.734;2023-11-19T03:02:51;101097.13;;;-6.53;74.40
75409;BME280;63979;55.644;37.734;2023-11-19T03:08:06;101088.38;;;-6.58;75.09
75409;BME280;63979;55.644;37.734;2023-11-19T03:13:11;101086.47;;;-6.66;75.18
75409;BME280;63979;55.644;37.734;2023-11-19T03:18:14;101078.50;;;-6.73;74.77
75409;BME280;63979;55.644;37.734;2023-11-19T03:23:15;101087.41;;;-6.62;74.73
75409;BME280;63979;55.644;37.734;2023-11-19T03:28:15;101091.00;;;-6.57;74.88
75409;BME280;63979;55.644;37.734;2023-11-19T03:33:16;101085.00;;;-6.54;74.17
75409;BME280;63979;55.644;37.734;2023-11-19T03:38:17;101083.25;;;-6.55;73.48
75409;BME280;63979;55.644;37.734;2023-11-19T03:43:18;101075.41;;;-6.57;73.69
75409;BME280;63979;55.644;37.734;2023-11-19T03:48:19;101066.56;;;-6.65;73.72
75409;BME280;63979;55.644;37.734;2023-11-19T03:53:21;101064.91;;;-6.62;73.97
75409;BME280;63979;55.644;37.734;2023-11-19T03:58:22;101063.41;;;-6.52;73.74
75409;BME280;63979;55.644;37.734;2023-11-19T04:03:22;101060.16;;;-6.40;73.63
75409;BME280;63979;55.644;37.734;2023-11-19T04:08:23;101054.28;;;-6.30;73.10
75409;BME280;63979;55.644;37.734;2023-11-19T04:13:24;101040.88;;;-6.08;73.66
75409;BME280;63979;55.644;37.734;2023-11-19T04:18:25;101028.09;;;-5.94;73.04
75409;BME280;63979;55.644;37.734;2023-11-19T04:23:25;101033.41;;;-5.89;72.44
75409;BME280;63979;55.644;37.734;2023-11-19T04:28:26;101008.09;;;-6.00;71.49
75409;BME280;63979;55.644;37.734;2023-11-19T04:33:27;101016.84;;;-5.94;71.19
75409;BME280;63979;55.644;37.734;2023-11-19T04:38:28;101037.94;;;-5.76;70.73
75409;BME280;63979;55.644;37.734;2023-11-19T04:43:29;101035.53;;;-5.64;70.54
75409;BME280;63979;55.644;37.734;2023-11-19T04:48:29;100997.03;;;-5.89;70.55
75409;BME280;63979;55.644;37.734;2023-11-19T04:53:30;101035.47;;;-5.67;70.55
75409;BME280;63979;55.644;37.734;2023-11-19T04:58:31;101046.84;;;-5.60;70.47
75409;BME280;63979;55.644;37.734;2023-11-19T05:03:32;101046.81;;;-5.62;70.84
75409;BME280;63979;55.644;37.734;2023-11-19T05:08:33;101062.50;;;-5.57;71.21
75409;BME280;63979;55.644;37.734;2023-11-19T05:13:34;101048.56;;;-5.61;70.89
75409;BME280;63979;55.644;37.734;2023-11-19T05:18:35;101057.31;;;-5.56;70.25
75409;BME280;63979;55.644;37.734;2023-11-19T05:23:35;101068.66;;;-5.54;70.65
75409;BME280;63979;55.644;37.734;2023-11-19T05:28:38;101068.66;;;-5.54;70.12
75409;BME280;63979;55.644;37.734;2023-11-19T05:33:39;101065.19;;;-5.53;70.06
75409;BME280;63979;55.644;37.734;2023-11-19T05:38:40;101074.72;;;-5.55;69.37
75409;BME280;63979;55.644;37.734;2023-11-19T05:43:41;101073.16;;;-5.44;69.19
75409;BME280;63979;55.644;37.734;2023-11-19T05:48:42;101052.28;;;-5.47;68.71
75409;BME280;63979;55.644;37.734;2023-11-19T05:53:43;101019.13;;;-5.60;68.18
75409;BME280;63979;55.644;37.734;2023-11-19T05:58:46;101057.84;;;-5.22;67.38
75409;BME280;63979;55.644;37.734;2023-11-19T06:03:49;101054.59;;;-5.09;67.14
75409;BME280;63979;55.644;37.734;2023-11-19T06:08:50;101062.94;;;-4.73;66.90
75409;BME280;63979;55.644;37.734;2023-11-19T06:13:52;101049.28;;;-4.52;66.38
75409;BME280;63979;55.644;37.734;2023-11-19T06:18:52;101016.28;;;-4.53;65.15
75409;BME280;63979;55.644;37.734;2023-11-19T06:23:54;101049.66;;;-4.20;64.25
75409;BME280;63979;55.644;37.734;2023-11-19T06:28:55;101054.16;;;-4.06;63.79
75409;BME280;63979;55.644;37.734;2023-11-19T06:33:55;101044.81;;;-3.85;63.53
75409;BME280;63979;55.644;37.734;2023-11-19T06:38:56;101045.53;;;-3.99;63.66
75409;BME280;63979;55.644;37.734;2023-11-19T06:43:57;101047.09;;;-4.17;63.89
75409;BME280;63979;55.644;37.734;2023-11-19T06:48:58;101014.84;;;-4.26;64.09
75409;BME280;63979;55.644;37.734;2023-11-19T06:53:58;101037.59;;;-4.12;64.05
75409;BME280;63979;55.644;37.734;2023-11-19T06:59:00;101026.53;;;-3.86;63.84
75409;BME280;63979;55.644;37.734;2023-11-19T07:04:00;101024.09;;;-3.71;63.31
75409;BME280;63979;55.644;37.734;2023-11-19T07:09:08;101024.31;;;-3.43;62.81
75409;BME280;63979;55.644;37.734;2023-11-19T07:14:10;101046.19;;;-3.26;61.77
75409;BME280;63979;55.644;37.734;2023-11-19T07:19:11;101038.66;;;-2.76;59.56
75409;BME280;63979;55.644;37.734;2023-11-19T07:24:12;101044.00;;;-2.45;59.19
75409;BME280;63979;55.644;37.734;2023-11-19T07:29:16;101014.34;;;-2.55;59.44
75409;BME280;63979;55.644;37.734;2023-11-19T07:34:17;101039.88;;;-1.69;57.03
75409;BME280;63979;55.644;37.734;2023-11-19T07:39:18;101032.72;;;-0.60;54.33
75409;BME280;63979;55.644;37.734;2023-11-19T07:44:21;101028.38;;;0.69;50.59
75409;BME280;63979;55.644;37.734;2023-11-19T07:49:21;101020.94;;;1.15;48.24
75409;BME280;63979;55.644;37.734;2023-11-19T07:54:22;101032.25;;;1.93;46.95
75409;BME280;63979;55.644;37.734;2023-11-19T07:59:23;101024.50;;;2.42;45.20
75409;BME280;63979;55.644;37.734;2023-11-19T08:04:24;101020.09;;;2.95;42.61
75409;BME280;63979;55.644;37.734;2023-11-19T08:09:25;101033.59;;;1.58;43.65
75409;BME280;63979;55.644;37.734;2023-11-19T08:14:26;101016.22;;;0.59;46.17
75409;BME280;63979;55.644;37.734;2023-11-19T08:19:29;100962.03;;;2.50;41.23
75409;BME280;63979;55.644;37.734;2023-11-19T08:24:30;101007.97;;;1.74;41.92
75409;BME280;63979;55.644;37.734;2023-11-19T08:29:31;100976.53;;;0.88;43.82
75409;BME280;63979;55.644;37.734;2023-11-19T08:34:32;101006.03;;;0.21;46.08
75409;BME280;63979;55.644;37.734;2023-11-19T08:39:32;101024.00;;;-0.71;48.17
75409;BME280;63979;55.644;37.734;2023-11-19T08:44:35;101005.59;;;-0.53;47.29
75409;BME280;63979;55.644;37.734;2023-11-19T08:49:36;100993.56;;;0.47;45.45
75409;BME280;63979;55.644;37.734;2023-11-19T08:54:37;100926.44;;;1.05;43.00
75409;BME280;63979;55.644;37.734;2023-11-19T08:59:37;100991.59;;;2.13;40.66
75409;BME280;63979;55.644;37.734;2023-11-19T09:04:39;100956.78;;;3.39;37.42
75409;BME280;63979;55.644;37.734;2023-11-19T09:09:41;100982.41;;;1.82;38.83
75409;BME280;63979;55.644;37.734;2023-11-19T09:14:42;100970.25;;;1.01;40.91
75409;BME280;63979;55.644;37.734;2023-11-19T09:19:42;100964.44;;;0.73;42.91
75409;BME280;63979;55.644;37.734;2023-11-19T09:24:43;100969.47;;;0.93;41.80
75409;BME280;63979;55.644;37.734;2023-11-19T09:29:45;100972.75;;;0.24;44.76
75409;BME280;63979;55.644;37.734;2023-11-19T09:34:47;100956.72;;;-0.72;46.10
75409;BME280;63979;55.644;37.734;2023-11-19T09:39:47;100957.69;;;-0.93;45.89
75409;BME280;63979;55.644;37.734;2023-11-19T09:44:49;100949.97;;;-1.74;48.01
75409;BME280;63979;55.644;37.734;2023-11-19T09:49:50;100943.03;;;-1.67;48.34
75409;BME280;63979;55.644;37.734;2023-11-19T09:54:51;100900.28;;;-2.13;47.66
75409;BME280;63979;55.644;37.734;2023-11-19T09:59:52;100915.97;;;-2.13;48.72
75409;BME280;63979;55.644;37.734;2023-11-19T10:04:54;100922.97;;;-2.00;49.51
75409;BME280;63979;55.644;37.734;2023-11-19T10:09:55;100919.44;;;-2.42;50.69
75409;BME280;63979;55.644;37.734;2023-11-19T10:14:57;100904.56;;;-2.75;51.58
75409;BME280;63979;55.644;37.734;2023-11-19T10:20:01;100909.75;;;-2.81;50.86
75409;BME280;63979;55.644;37.734;2023-11-19T10:25:08;100911.44;;;-2.98;51.53
75409;BME280;63979;55.644;37.734;2023-11-19T10:30:24;100907.97;;;-2.94;51.02
75409;BME280;63979;55.644;37.734;2023-11-19T10:35:26;100895.78;;;-2.95;51.86
75409;BME280;63979;55.644;37.734;2023-11-19T10:40:40;100887.06;;;-3.00;52.17
75409;BME280;63979;55.644;37.734;2023-11-19T10:45:41;100847.81;;;-3.14;51.26
75409;BME280;63979;55.644;37.734;2023-11-19T10:50:44;100894.03;;;-2.96;52.02
75409;BME280;63979;55.644;37.734;2023-11-19T10:55:47;100888.03;;;-2.66;50.14
75409;BME280;63979;55.644;37.734;2023-11-19T11:00:54;100891.53;;;-2.49;50.35
75409;BME280;63979;55.644;37.734;2023-11-19T11:05:56;100900.22;;;-2.59;50.13
75409;BME280;63979;55.644;37.734;2023-11-19T11:10:58;100862.72;;;-2.81;50.23
75409;BME280;63979;55.644;37.734;2023-11-19T11:16:00;100893.19;;;-2.86;50.88
75409;BME280;63979;55.644;37.734;2023-11-19T11:21:03;100895.78;;;-2.88;51.97
75409;BME280;63979;55.644;37.734;2023-11-19T11:31:44;100882.75;;;-2.82;50.99
75409;BME280;63979;55.644;37.734;2023-11-19T11:37:11;100841.72;;;-3.21;52.40
75409;BME280;63979;55.644;37.734;2023-11-19T11:47:21;100890.53;;;-3.00;52.69
75409;BME280;63979;55.644;37.734;2023-11-19T11:52:22;100887.94;;;-2.94;52.73
75409;BME280;63979;55.644;37.734;2023-11-19T11:57:22;100843.44;;;-3.29;53.15
75409;BME280;63979;55.644;37.734;2023-11-19T12:02:25;100870.44;;;-3.13;52.61
75409;BME280;63979;55.644;37.734;2023-11-19T12:07:26;100880.84;;;-3.28;53.68
75409;BME280;63979;55.644;37.734;2023-11-19T12:12:27;100887.66;;;-3.52;55.61
75409;BME280;63979;55.644;37.734;2023-11-19T12:22:40;100871.88;;;-3.78;57.81
75409;BME280;63979;55.644;37.734;2023-11-19T12:27:43;100877.19;;;-3.62;57.81
75409;BME280;63979;55.644;37.734;2023-11-19T12:32:45;100857.13;;;-3.74;57.09
75409;BME280;63979;55.644;37.734;2023-11-19T12:37:48;100850.66;;;-4.25;56.55
75409;BME280;63979;55.644;37.734;2023-11-19T12:42:53;100852.66;;;-3.90;55.65
75409;BME280;63979;55.644;37.734;2023-11-19T12:48:07;100840.44;;;-3.99;56.11
75409;BME280;63979;55.644;37.734;2023-11-19T12:53:10;100842.31;;;-3.78;57.72
75409;BME280;63979;55.644;37.734;2023-11-19T12:58:30;100831.09;;;-3.63;56.34
75409;BME280;63979;55.644;37.734;2023-11-19T13:03:36;100835.44;;;-3.64;56.29
75409;BME280;63979;55.644;37.734;2023-11-19T13:08:45;100818.88;;;-3.72;54.75
75409;BME280;63979;55.644;37.734;2023-11-19T13:13:57;100802.34;;;-3.77;55.04
75409;BME280;63979;55.644;37.734;2023-11-19T13:19:00;100820.59;;;-3.77;56.25
75409;BME280;63979;55.644;37.734;2023-11-19T13:24:00;100808.34;;;-3.86;55.88
75409;BME280;63979;55.644;37.734;2023-11-19T13:29:01;100800.50;;;-3.93;55.95
75409;BME280;63979;55.644;37.734;2023-11-19T13:34:02;100763.03;;;-4.14;55.50
75409;BME280;63979;55.644;37.734;2023-11-19T13:39:03;100810.94;;;-3.90;55.31
75409;BME280;63979;55.644;37.734;2023-11-19T13:44:04;100813.47;;;-4.04;55.49
75409;BME280;63979;55.644;37.734;2023-11-19T13:49:06;100770.69;;;-4.33;57.14
75409;BME280;63979;55.644;37.734;2023-11-19T13:54:06;100820.41;;;-4.06;56.81
75409;BME280;63979;55.644;37.734;2023-11-19T13:59:07;100815.94;;;-4.21;56.50
75409;BME280;63979;55.644;37.734;2023-11-19T14:04:09;100804.66;;;-4.20;57.63
75409;BME280;63979;55.644;37.734;2023-11-19T14:09:10;100823.69;;;-4.31;59.56
75409;BME280;63979;55.644;37.734;2023-11-19T14:14:11;100828.06;;;-4.26;59.00
75409;BME280;63979;55.644;37.734;2023-11-19T14:19:11;100818.50;;;-4.27;59.46
75409;BME280;63979;55.644;37.734;2023-11-19T14:24:14;100814.16;;;-4.29;58.94
75409;BME280;63979;55.644;37.734;2023-11-19T14:29:15;100807.88;;;-4.53;59.09
75409;BME280;63979;55.644;37.734;2023-11-19T14:34:16;100808.94;;;-4.31;59.17
75409;BME280;63979;55.644;37.734;2023-11-19T14:39:16;100810.59;;;-4.41;59.68
75409;BME280;63979;55.644;37.734;2023-11-19T14:44:17;100779.34;;;-4.42;60.01
75409;BME280;63979;55.644;37.734;2023-11-19T14:49:20;100808.88;;;-4.37;61.98
75409;BME280;63979;55.644;37.734;2023-11-19T14:54:21;100794.66;;;-4.79;64.68
75409;BME280;63979;55.644;37.734;2023-11-19T14:59:22;100802.56;;;-4.66;64.62
75409;BME280;63979;55.644;37.734;2023-11-19T15:04:22;100795.41;;;-4.87;65.17
75409;BME280;63979;55.644;37.734;2023-11-19T15:09:24;100797.09;;;-4.92;63.82
75409;BME280;63979;55.644;37.734;2023-11-19T15:14:25;100796.13;;;-5.04;63.49
75409;BME280;63979;55.644;37.734;2023-11-19T15:19:26;100771.75;;;-5.13;64.19
75409;BME280;63979;55.644;37.734;2023-11-19T15:24:30;100773.69;;;-4.89;62.85
75409;BME280;63979;55.644;37.734;2023-11-19T15:29:31;100761.50;;;-4.95;62.20
75409;BME280;63979;55.644;37.734;2023-11-19T15:34:35;100768.38;;;-5.03;61.82
75409;BME280;63979;55.644;37.734;2023-11-19T15:39:38;100762.41;;;-4.91;62.50
75409;BME280;63979;55.644;37.734;2023-11-19T15:44:39;100760.59;;;-5.02;61.59
75409;BME280;63979;55.644;37.734;2023-11-19T15:49:40;100762.19;;;-5.17;61.41
75409;BME280;63979;55.644;37.734;2023-11-19T15:54:41;100768.09;;;-5.29;61.77
75409;BME280;63979;55.644;37.734;2023-11-19T15:59:42;100748.97;;;-5.36;61.69
75409;BME280;63979;55.644;37.734;2023-11-19T16:04:43;100749.94;;;-5.23;60.61
75409;BME280;63979;55.644;37.734;2023-11-19T16:09:47;100752.66;;;-5.15;60.98
75409;BME280;63979;55.644;37.734;2023-11-19T16:14:49;100738.66;;;-5.26;60.39
75409;BME280;63979;55.644;37.734;2023-11-19T16:19:49;100749.25;;;-5.08;60.16
75409;BME280;63979;55.644;37.734;2023-11-19T16:24:50;100756.22;;;-5.04;60.61
75409;BME280;63979;55.644;37.734;2023-11-19T16:29:54;100754.59;;;-4.93;60.00
75409;BME280;63979;55.644;37.734;2023-11-19T16:34:54;100738.00;;;-5.06;59.54
75409;BME280;63979;55.644;37.734;2023-11-19T16:39:56;100738.88;;;-5.05;59.49
75409;BME280;63979;55.644;37.734;2023-11-19T16:44:57;100751.91;;;-5.00;59.82
75409;BME280;63979;55.644;37.734;2023-11-19T16:49:57;100731.81;;;-5.18;60.14
75409;BME280;63979;55.644;37.734;2023-11-19T16:54:58;100751.94;;;-4.97;60.58
75409;BME280;63979;55.644;37.734;2023-11-19T17:00:00;100753.75;;;-4.87;59.57
75409;BME280;63979;55.644;37.734;2023-11-19T17:05:01;100743.34;;;-4.87;59.57
75409;BME280;63979;55.644;37.734;2023-11-19T17:10:04;100740.81;;;-4.84;59.53
75409;BME280;63979;55.644;37.734;2023-11-19T17:15:07;100725.91;;;-4.97;59.82
75409;BME280;63979;55.644;37.734;2023-11-19T17:20:09;100737.72;;;-5.33;60.12
75409;BME280;63979;55.644;37.734;2023-11-19T17:25:10;100726.41;;;-5.37;61.83
75409;BME280;63979;55.644;37.734;2023-11-19T17:30:11;100709.94;;;-5.36;60.44
75409;BME280;63979;55.644;37.734;2023-11-19T17:35:13;100682.06;;;-5.50;61.00
75409;BME280;63979;55.644;37.734;2023-11-19T17:40:14;100732.56;;;-5.28;60.55
75409;BME280;63979;55.644;37.734;2023-11-19T17:45:17;100736.03;;;-5.28;61.62
75409;BME280;63979;55.644;37.734;2023-11-19T17:50:18;100728.28;;;-5.23;61.73
75409;BME280;63979;55.644;37.734;2023-11-19T17:55:21;100709.00;;;-5.44;61.30
75409;BME280;63979;55.644;37.734;2023-11-19T18:00:22;100716.06;;;-5.32;60.58
75409;BME280;63979;55.644;37.734;2023-11-19T18:05:23;100728.16;;;-5.36;60.82
75409;BME280;63979;55.644;37.734;2023-11-19T18:10:24;100723.78;;;-5.38;60.69
75409;BME280;63979;55.644;37.734;2023-11-19T18:15:25;100635.81;;;-5.80;60.07
75409;BME280;63979;55.644;37.734;2023-11-19T18:20:26;100720.28;;;-5.42;59.39
75409;BME280;63979;55.644;37.734;2023-11-19T18:25:27;100705.53;;;-5.46;60.12
75409;BME280;63979;55.644;37.734;2023-11-19T18:30:28;100713.47;;;-5.29;60.29
75409;BME280;63979;55.644;37.734;2023-11-19T18:35:28;100723.84;;;-5.34;60.20
75409;BME280;63979;55.644;37.734;2023-11-19T18:40:29;100724.75;;;-5.28;60.13
75409;BME280;63979;55.644;37.734;2023-11-19T18:45:30;100710.91;;;-5.24;59.86
75409;BME280;63979;55.644;37.734;2023-11-19T18:50:31;100665.63;;;-5.48;59.77
75409;BME280;63979;55.644;37.734;2023-11-19T18:55:33;100722.19;;;-5.24;59.52
75409;BME280;63979;55.644;37.734;2023-11-19T19:00:35;100711.81;;;-5.22;59.69
75409;BME280;63979;55.644;37.734;2023-11-19T19:05:38;100720.53;;;-5.19;59.48
75409;BME280;63979;55.644;37.734;2023-11-19T19:10:40;100716.19;;;-5.18;59.60
75409;BME280;63979;55.644;37.734;2023-11-19T19:15:42;100669.16;;;-5.40;59.22
75409;BME280;63979;55.644;37.734;2023-11-19T19:20:44;100710.19;;;-5.13;58.34
75409;BME280;63979;55.644;37.734;2023-11-19T19:25:47;100682.38;;;-5.20;58.46
75409;BME280;63979;55.644;37.734;2023-11-19T19:30:48;100723.22;;;-5.10;58.74
75409;BME280;63979;55.644;37.734;2023-11-19T19:35:50;100717.97;;;-5.13;59.01
75409;BME280;63979;55.644;37.734;2023-11-19T19:40:51;100717.94;;;-5.19;59.27
75409;BME280;63979;55.644;37.734;2023-11-19T19:45:54;100709.19;;;-5.22;59.32
75409;BME280;63979;55.644;37.734;2023-11-19T19:50:55;100716.88;;;-5.38;60.21
75409;BME280;63979;55.644;37.734;2023-11-19T19:56:00;100719.44;;;-5.39;60.11
75409;BME280;63979;55.644;37.734;2023-11-19T20:01:01;100720.19;;;-5.54;60.01
75409;BME280;63979;55.644;37.734;2023-11-19T20:06:04;100719.31;;;-5.53;60.10
75409;BME280;63979;55.644;37.734;2023-11-19T20:11:12;100703.66;;;-5.56;61.09
75409;BME280;63979;55.644;37.734;2023-11-19T20:16:14;100711.44;;;-5.57;61.17
75409;BME280;63979;55.644;37.734;2023-11-19T20:21:15;100715.72;;;-5.62;60.86
75409;BME280;63979;55.644;37.734;2023-11-19T20:26:17;100718.34;;;-5.59;61.08
75409;BME280;63979;55.644;37.734;2023-11-19T20:31:19;100707.88;;;-5.66;60.96
75409;BME280;63979;55.644;37.734;2023-11-19T20:36:22;100711.38;;;-5.63;61.51
75409;BME280;63979;55.644;37.734;2023-11-19T20:41:23;100663.44;;;-5.91;61.49
75409;BME280;63979;55.644;37.734;2023-11-19T20:46:26;100703.59;;;-5.62;61.78
75409;BME280;63979;55.644;37.734;2023-11-19T20:51:27;100707.94;;;-5.61;61.36
75409;BME280;63979;55.644;37.734;2023-11-19T20:56:30;100695.69;;;-5.71;61.35
75409;BME280;63979;55.644;37.734;2023-11-19T21:01:32;100668.84;;;-5.72;61.87
75409;BME280;63979;55.644;37.734;2023-11-19T21:06:34;100685.63;;;-5.42;62.77
75409;BME280;63979;55.644;37.734;2023-11-19T21:11:35;100657.03;;;-5.38;63.21
75409;BME280;63979;55.644;37.734;2023-11-19T21:16:38;100662.38;;;-5.22;63.01
75409;BME280;63979;55.644;37.734;2023-11-19T21:21:39;100657.16;;;-5.21;63.16
75409;BME280;63979;55.644;37.734;2023-11-19T21:26:44;100649.50;;;-5.06;64.19
75409;BME280;63979;55.644;37.734;2023-11-19T21:31:46;100655.56;;;-5.07;64.39
75409;BME280;63979;55.644;37.734;2023-11-19T21:36:50;100654.47;;;-5.33;65.97
75409;BME280;63979;55.644;37.734;2023-11-19T21:41:51;100653.69;;;-5.21;65.79
75409;BME280;63979;55.644;37.734;2023-11-19T21:46:55;100637.31;;;-5.14;65.59
75409;BME280;63979;55.644;37.734;2023-11-19T21:51:57;100626.94;;;-5.07;65.87
75409;BME280;63979;55.644;37.734;2023-11-19T21:56:59;100639.00;;;-5.18;66.50
75409;BME280;63979;55.644;37.734;2023-11-19T22:02:00;100630.44;;;-5.03;66.27
75409;BME280;63979;55.644;37.734;2023-11-19T22:07:01;100634.81;;;-4.96;65.34
75409;BME280;63979;55.644;37.734;2023-11-19T22:12:02;100627.84;;;-5.02;65.49
75409;BME280;63979;55.644;37.734;2023-11-19T22:17:03;100633.03;;;-5.03;65.11
75409;BME280;63979;55.644;37.734;2023-11-19T22:22:06;100629.59;;;-5.00;64.83
75409;BME280;63979;55.644;37.734;2023-11-19T22:27:09;100612.28;;;-4.94;64.64
75409;BME280;63979;55.644;37.734;2023-11-19T22:32:10;100613.25;;;-4.78;64.32
75409;BME280;63979;55.644;37.734;2023-11-19T22:37:11;100619.34;;;-4.76;63.46
75409;BME280;63979;55.644;37.734;2023-11-19T22:42:12;100607.19;;;-4.79;62.31
75409;BME280;63979;55.644;37.734;2023-11-19T22:47:13;100605.38;;;-4.87;62.09
75409;BME280;63979;55.644;37.734;2023-11-19T22:52:14;100589.66;;;-5.07;62.69
75409;BME280;63979;55.644;37.734;2023-11-19T22:57:14;100601.03;;;-4.90;62.29
75409;BME280;63979;55.644;37.734;2023-11-19T23:02:15;100605.47;;;-4.74;63.03
75409;BME280;63979;55.644;37.734;2023-11-19T23:07:16;100596.84;;;-4.66;63.53
75409;BME280;63979;55.644;37.734;2023-11-19T23:12:17;100602.97;;;-4.55;63.21
75409;BME280;63979;55.644;37.734;2023-11-19T23:17:18;100594.28;;;-4.51;62.53
75409;BME280;63979;55.644;37.734;2023-11-19T23:22:19;100598.66;;;-4.50;62.34
75409;BME280;63979;55.644;37.734;2023-11-19T23:27:20;100602.94;;;-4.58;62.39
75409;BME280;63979;55.644;37.734;2023-11-19T23:32:21;100592.41;;;-4.84;63.38
75409;BME280;63979;55.644;37.734;2023-11-19T23:37:21;100593.31;;;-4.75;62.43
75409;BME280;63979;55.644;37.734;2023-11-19T23:42:22;100590.72;;;-4.73;62.75
75409;BME280;63979;55.644;37.734;2023-11-19T23:47:23;100540.25;;;-4.99;63.03
75409;BME280;63979;55.644;37.734;2023-11-19T23:52:24;100576.84;;;-4.74;62.87
75409;BME280;63979;55.644;37.734;2023-11-19T23:57:25;100584.69;;;-4.61;62.96
